Time;durP1;ratioP1;P1;durP2;ratioP2;P2;SDS_P1;SDS_P2;PMS_P1;PMS_P2;Temp;Humidity;BMP_temperature;BMP_pressure;BME280_temperature;BME280_humidity;BME280_pressure;Samples;Min_cycle;Max_cycle;Signal;HPM_P1;HPM_P2
2021/08/27 00:00:50;;;;;;;0.40;0.40;;;;;;;;;;5012881;28;20168;-65
2021/08/27 00:03:16;;;;;;;0.40;0.40;;;;;;;;;;5012475;28;20430;-65
2021/08/27 00:05:42;;;;;;;0.30;0.30;;;;;;;;;;5012071;28;20778;-65
2021/08/27 00:08:08;;;;;;;0.40;0.40;;;;;;;;;;5011818;28;20405;-65
2021/08/27 00:10:34;;;;;;;0.40;0.40;;;;;;;;;;5011953;28;20412;-65
2021/08/27 00:13:00;;;;;;;0.40;0.40;;;;;;;;;;5011427;28;20475;-65
2021/08/27 00:15:26;;;;;;;0.30;0.30;;;;;;;;;;5011908;28;20179;-65
2021/08/27 00:17:52;;;;;;;0.30;0.30;;;;;;;;;;5010130;28;20409;-65
2021/08/27 00:20:18;;;;;;;0.30;0.30;;;;;;;;;;5015709;28;20452;-65
2021/08/27 00:22:44;;;;;;;0.40;0.40;;;;;;;;;;5015594;28;20414;-65
2021/08/27 00:25:10;;;;;;;0.30;0.30;;;;;;;;;;5015855;28;20448;-65
2021/08/27 00:27:37;;;;;;;0.30;0.30;;;;;;;;;;5016211;28;20413;-63
2021/08/27 00:30:03;;;;;;;0.40;0.40;;;;;;;;;;5015781;28;20669;-65
2021/08/27 00:32:29;;;;;;;0.40;0.40;;;;;;;;;;5016397;28;20233;-63
2021/08/27 00:34:55;;;;;;;0.30;0.30;;;;;;;;;;5015778;28;20460;-65
2021/08/27 00:37:21;;;;;;;0.40;0.40;;;;;;;;;;5015879;28;20226;-64
2021/08/27 00:39:47;;;;;;;0.40;0.40;;;;;;;;;;5015551;28;20551;-65
2021/08/27 00:42:13;;;;;;;0.30;0.30;;;;;;;;;;5015084;28;20448;-65
2021/08/27 00:44:39;;;;;;;0.40;0.40;;;;;;;;;;5015471;28;20454;-65
2021/08/27 00:47:05;;;;;;;0.40;0.40;;;;;;;;;;5015012;28;20185;-63
2021/08/27 00:49:32;;;;;;;0.40;0.40;;;;;;;;;;5015170;28;20707;-65
2021/08/27 00:51:58;;;;;;;0.30;0.30;;;;;;;;;;5014825;28;20463;-63
2021/08/27 00:54:24;;;;;;;0.30;0.30;;;;;;;;;;5015228;28;20173;-65
2021/08/27 00:56:51;;;;;;;0.40;0.40;;;;;;;;;;5015104;28;20214;-65
2021/08/27 00:59:17;;;;;;;0.30;0.30;;;;;;;;;;5014662;28;20755;-64
2021/08/27 01:01:43;;;;;;;0.40;0.40;;;;;;;;;;5014961;28;20406;-65
2021/08/27 01:04:10;;;;;;;0.40;0.40;;;;;;;;;;5014621;28;20180;-63
2021/08/27 01:06:39;;;;;;;0.37;0.37;;;;;;;;;;5015018;28;20176;-63
2021/08/27 01:09:24;;;;;;;0.30;0.30;;;;;;;;;;5013394;28;20437;-63
2021/08/27 01:11:55;;;;;;;0.40;0.40;;;;;;;;;;5014402;28;20458;-63
2021/08/27 01:14:24;;;;;;;0.40;0.40;;;;;;;;;;5014696;28;20172;-65
2021/08/27 01:16:59;;;;;;;0.30;0.30;;;;;;;;;;5014639;28;20401;-63
2021/08/27 01:19:43;;;;;;;0.40;0.40;;;;;;;;;;5014664;28;20928;-65
2021/08/27 01:22:28;;;;;;;0.30;0.30;;;;;;;;;;5014131;28;20170;-63
2021/08/27 01:24:56;;;;;;;0.30;0.30;;;;;;;;;;5014591;28;20232;-62
2021/08/27 01:27:24;;;;;;;0.30;0.30;;;;;;;;;;5014319;28;20176;-65
2021/08/27 01:30:09;;;;;;;0.30;0.30;;;;;;;;;;5014000;28;20194;-65
2021/08/27 01:32:42;;;;;;;0.30;0.30;;;;;;;;;;5013932;28;20687;-65
2021/08/27 01:35:08;;;;;;;0.40;0.40;;;;;;;;;;5014469;28;20408;-65
2021/08/27 01:37:36;;;;;;;0.40;0.40;;;;;;;;;;5014188;28;20174;-65
2021/08/27 01:40:03;;;;;;;0.40;0.40;;;;;;;;;;5014106;28;20405;-65
2021/08/27 01:42:29;;;;;;;0.40;0.40;;;;;;;;;;5013966;28;20375;-65
2021/08/27 01:44:56;;;;;;;0.40;0.40;;;;;;;;;;5013972;28;20893;-63
2021/08/27 01:47:24;;;;;;;0.30;0.30;;;;;;;;;;5014186;28;20209;-65
2021/08/27 01:49:54;;;;;;;0.30;0.30;;;;;;;;;;5013671;28;20308;-65
2021/08/27 01:52:21;;;;;;;0.40;0.40;;;;;;;;;;5013387;28;20209;-65
2021/08/27 01:54:47;;;;;;;0.40;0.40;;;;;;;;;;5013864;28;20412;-64
2021/08/27 01:57:14;;;;;;;0.40;0.40;;;;;;;;;;5013794;28;20405;-63
2021/08/27 01:59:41;;;;;;;0.30;0.30;;;;;;;;;;5013746;28;20280;-65
2021/08/27 02:02:09;;;;;;;0.30;0.30;;;;;;;;;;5013427;28;20523;-65
2021/08/27 02:04:36;;;;;;;0.30;0.30;;;;;;;;;;5013835;28;20580;-65
2021/08/27 02:07:03;;;;;;;0.33;0.33;;;;;;;;;;5013407;28;20379;-65
2021/08/27 02:09:30;;;;;;;0.40;0.40;;;;;;;;;;5013578;28;20431;-65
2021/08/27 02:11:56;;;;;;;0.30;0.30;;;;;;;;;;5013164;28;20425;-65
2021/08/27 02:14:22;;;;;;;0.40;0.40;;;;;;;;;;5013429;28;20204;-65
2021/08/27 02:16:48;;;;;;;0.30;0.30;;;;;;;;;;5013518;28;20384;-65
2021/08/27 02:19:14;;;;;;;0.30;0.30;;;;;;;;;;5013109;28;20600;-65
2021/08/27 02:21:44;;;;;;;0.40;0.40;;;;;;;;;;5013299;28;20441;-65
2021/08/27 02:24:12;;;;;;;0.40;0.40;;;;;;;;;;5012897;28;20828;-65
2021/08/27 02:26:38;;;;;;;0.40;0.40;;;;;;;;;;5013191;28;20415;-64
2021/08/27 02:29:05;;;;;;;0.30;0.30;;;;;;;;;;5013034;28;20502;-65
2021/08/27 02:31:32;;;;;;;0.30;0.30;;;;;;;;;;5012926;28;20410;-65
2021/08/27 02:33:58;;;;;;;0.30;0.30;;;;;;;;;;5012875;28;20404;-65
2021/08/27 02:36:25;;;;;;;0.40;0.40;;;;;;;;;;5013062;28;20208;-65
2021/08/27 02:38:51;;;;;;;0.40;0.40;;;;;;;;;;5013012;28;20400;-65
2021/08/27 02:41:17;;;;;;;0.40;0.40;;;;;;;;;;5012504;28;20473;-65
2021/08/27 02:43:43;;;;;;;0.30;0.30;;;;;;;;;;5012013;28;20391;-65
2021/08/27 02:46:09;;;;;;;0.40;0.40;;;;;;;;;;5012950;28;20413;-64
2021/08/27 02:48:35;;;;;;;0.40;0.40;;;;;;;;;;5037704;22;20219;-66
2021/08/27 02:51:05;;;;;;;0.40;0.40;;;;;;;;;;5032303;28;20406;-66
2021/08/27 02:53:32;;;;;;;0.30;0.30;;;;;;;;;;5031594;28;20521;-66
2021/08/27 02:56:06;;;;;;;0.40;0.40;;;;;;;;;;5032492;28;20197;-67
2021/08/27 02:58:33;;;;;;;0.30;0.30;;;;;;;;;;5032155;28;20675;-65
2021/08/27 03:01:07;;;;;;;0.30;0.30;;;;;;;;;;5031066;28;20452;-65
2021/08/27 03:03:38;;;;;;;0.40;0.40;;;;;;;;;;5031979;28;20282;-66
2021/08/27 03:06:08;;;;;;;0.40;0.40;;;;;;;;;;5032198;28;20180;-66
2021/08/27 03:08:35;;;;;;;0.40;0.40;;;;;;;;;;5032160;28;20642;-66
2021/08/27 03:11:07;;;;;;;0.40;0.40;;;;;;;;;;5031909;28;20382;-66
2021/08/27 03:13:34;;;;;;;0.40;0.40;;;;;;;;;;5031781;28;20464;-66
2021/08/27 03:16:03;;;;;;;0.30;0.30;;;;;;;;;;5031862;28;20405;-66
2021/08/27 03:18:48;;;;;;;0.40;0.40;;;;;;;;;;5031979;28;20170;-66
2021/08/27 03:21:18;;;;;;;0.40;0.40;;;;;;;;;;5031897;28;20374;-66
2021/08/27 03:23:45;;;;;;;0.30;0.30;;;;;;;;;;5031768;28;20949;-66
2021/08/27 03:26:15;;;;;;;0.30;0.30;;;;;;;;;;5031699;28;20207;-66
2021/08/27 03:28:44;;;;;;;0.30;0.30;;;;;;;;;;5031807;28;20958;-66
2021/08/27 03:31:10;;;;;;;0.40;0.40;;;;;;;;;;5031889;28;20279;-65
2021/08/27 03:33:36;;;;;;;0.30;0.30;;;;;;;;;;5031351;28;20524;-65
2021/08/27 03:36:03;;;;;;;0.30;0.30;;;;;;;;;;5031872;28;20170;-65
2021/08/27 03:38:29;;;;;;;0.40;0.40;;;;;;;;;;5030186;28;20427;-66
2021/08/27 03:40:57;;;;;;;0.30;0.30;;;;;;;;;;5031696;28;20384;-66
2021/08/27 03:43:23;;;;;;;0.40;0.40;;;;;;;;;;5031261;28;20473;-65
2021/08/27 03:45:50;;;;;;;0.30;0.30;;;;;;;;;;5031393;28;20785;-65
2021/08/27 03:48:17;;;;;;;0.30;0.30;;;;;;;;;;5031434;28;20407;-64
2021/08/27 03:50:44;;;;;;;0.30;0.30;;;;;;;;;;5031423;28;20887;-66
2021/08/27 03:53:11;;;;;;;0.30;0.30;;;;;;;;;;5031164;28;20642;-66
2021/08/27 03:55:37;;;;;;;0.30;0.30;;;;;;;;;;5031300;28;20495;-65
2021/08/27 03:58:04;;;;;;;0.30;0.30;;;;;;;;;;5031478;28;20557;-66
2021/08/27 04:00:31;;;;;;;0.40;0.40;;;;;;;;;;5031320;28;20764;-65
2021/08/27 04:02:58;;;;;;;0.40;0.40;;;;;;;;;;5031235;28;20418;-65
2021/08/27 04:05:23;;;;;;;0.30;0.30;;;;;;;;;;5031425;28;20384;-65
2021/08/27 04:07:50;;;;;;;0.30;0.30;;;;;;;;;;5031395;28;20185;-65
2021/08/27 04:10:18;;;;;;;0.30;0.30;;;;;;;;;;5031230;28;20485;-65
2021/08/27 04:12:44;;;;;;;0.30;0.30;;;;;;;;;;5030945;28;20501;-65
2021/08/27 04:15:12;;;;;;;0.40;0.40;;;;;;;;;;5031360;28;20537;-66
2021/08/27 04:17:38;;;;;;;0.40;0.40;;;;;;;;;;5031124;28;20405;-65
2021/08/27 04:20:05;;;;;;;0.30;0.30;;;;;;;;;;5031364;28;20401;-63
2021/08/27 04:22:31;;;;;;;0.40;0.40;;;;;;;;;;5030986;28;20448;-65
2021/08/27 04:24:58;;;;;;;0.30;0.30;;;;;;;;;;5030302;28;20774;-66
2021/08/27 04:27:24;;;;;;;0.30;0.30;;;;;;;;;;5029947;28;20443;-66
2021/08/27 04:29:50;;;;;;;0.40;0.40;;;;;;;;;;5029621;28;20296;-65
2021/08/27 04:32:16;;;;;;;0.30;0.30;;;;;;;;;;5030992;28;20470;-65
2021/08/27 04:34:42;;;;;;;0.30;0.30;;;;;;;;;;5031057;28;20457;-66
2021/08/27 04:37:08;;;;;;;0.40;0.40;;;;;;;;;;5031293;28;20901;-66
2021/08/27 04:39:34;;;;;;;0.40;0.40;;;;;;;;;;5030937;28;20428;-64
2021/08/27 04:42:02;;;;;;;0.30;0.30;;;;;;;;;;5030826;28;20433;-65
2021/08/27 04:44:28;;;;;;;0.30;0.30;;;;;;;;;;5031094;28;20438;-66
2021/08/27 04:46:54;;;;;;;0.30;0.30;;;;;;;;;;5030941;28;21035;-66
2021/08/27 04:49:20;;;;;;;0.30;0.30;;;;;;;;;;5030875;28;20455;-66
2021/08/27 04:51:46;;;;;;;0.40;0.40;;;;;;;;;;5030737;28;20412;-66
2021/08/27 04:54:12;;;;;;;0.40;0.40;;;;;;;;;;5030845;28;20426;-66
2021/08/27 04:56:38;;;;;;;0.30;0.30;;;;;;;;;;5030961;28;20406;-66
2021/08/27 04:59:04;;;;;;;0.40;0.40;;;;;;;;;;5030657;28;20422;-65
2021/08/27 05:01:30;;;;;;;0.40;0.40;;;;;;;;;;5029644;28;20427;-66
2021/08/27 05:03:56;;;;;;;0.30;0.30;;;;;;;;;;5030503;28;20446;-65
2021/08/27 05:06:22;;;;;;;0.30;0.30;;;;;;;;;;5033005;28;20444;-64
2021/08/27 05:08:48;;;;;;;0.40;0.40;;;;;;;;;;5034243;28;20429;-65
2021/08/27 05:11:14;;;;;;;0.40;0.40;;;;;;;;;;5034213;28;20467;-65
2021/08/27 05:13:40;;;;;;;0.30;0.30;;;;;;;;;;5034012;28;20235;-64
2021/08/27 05:16:06;;;;;;;0.40;0.40;;;;;;;;;;5034126;28;20425;-66
2021/08/27 05:18:32;;;;;;;0.30;0.30;;;;;;;;;;5034173;28;20438;-64
2021/08/27 05:20:58;;;;;;;0.30;0.30;;;;;;;;;;5034004;28;20496;-64
2021/08/27 05:23:24;;;;;;;0.40;0.40;;;;;;;;;;5034548;28;20414;-66
2021/08/27 05:25:52;;;;;;;0.40;0.40;;;;;;;;;;5034083;28;20420;-66
2021/08/27 05:28:18;;;;;;;0.30;0.30;;;;;;;;;;5033851;28;20384;-66
2021/08/27 05:30:44;;;;;;;0.30;0.30;;;;;;;;;;5033969;28;20437;-67
2021/08/27 05:33:10;;;;;;;0.33;0.33;;;;;;;;;;5033481;28;20925;-66
2021/08/27 05:35:36;;;;;;;0.40;0.40;;;;;;;;;;5033954;28;20404;-64
2021/08/27 05:38:02;;;;;;;0.30;0.30;;;;;;;;;;5033763;28;20798;-66
2021/08/27 05:40:28;;;;;;;0.30;0.30;;;;;;;;;;5033772;28;20924;-66
2021/08/27 05:42:54;;;;;;;0.30;0.30;;;;;;;;;;5033342;28;20394;-66
2021/08/27 05:45:21;;;;;;;0.30;0.30;;;;;;;;;;5033689;28;20465;-66
2021/08/27 05:47:47;;;;;;;0.30;0.30;;;;;;;;;;5033909;28;20391;-66
2021/08/27 05:50:14;;;;;;;0.30;0.30;;;;;;;;;;5033362;28;20458;-65
2021/08/27 05:52:40;;;;;;;0.30;0.30;;;;;;;;;;5033463;28;20196;-66
2021/08/27 05:55:07;;;;;;;0.30;0.30;;;;;;;;;;5033556;28;20921;-65
2021/08/27 05:57:34;;;;;;;0.30;0.30;;;;;;;;;;5032700;28;20223;-65
2021/08/27 06:00:00;;;;;;;0.30;0.30;;;;;;;;;;5032186;28;20820;-66
2021/08/27 06:02:26;;;;;;;0.30;0.30;;;;;;;;;;5030840;28;20449;-65
2021/08/27 06:04:52;;;;;;;0.40;0.40;;;;;;;;;;5033025;28;20411;-65
2021/08/27 06:07:18;;;;;;;0.30;0.30;;;;;;;;;;5033194;28;20951;-65
2021/08/27 06:09:44;;;;;;;0.40;0.40;;;;;;;;;;5032822;28;20434;-64
2021/08/27 06:12:10;;;;;;;0.40;0.40;;;;;;;;;;5032768;28;20470;-66
2021/08/27 06:14:37;;;;;;;0.40;0.40;;;;;;;;;;5033055;28;20769;-66
2021/08/27 06:17:03;;;;;;;0.30;0.30;;;;;;;;;;5032577;28;20410;-64
2021/08/27 06:19:29;;;;;;;0.40;0.40;;;;;;;;;;5032266;28;20203;-65
2021/08/27 06:21:57;;;;;;;0.40;0.40;;;;;;;;;;5032640;28;20895;-63
2021/08/27 06:24:23;;;;;;;0.40;0.40;;;;;;;;;;5032631;28;20424;-66
2021/08/27 06:26:49;;;;;;;0.30;0.30;;;;;;;;;;5032213;28;20417;-66
2021/08/27 06:29:15;;;;;;;0.40;0.40;;;;;;;;;;5032528;28;21038;-65
2021/08/27 06:31:41;;;;;;;0.30;0.30;;;;;;;;;;5032600;28;20442;-67
2021/08/27 06:34:07;;;;;;;0.40;0.40;;;;;;;;;;5032162;28;20423;-64
2021/08/27 06:36:33;;;;;;;0.30;0.30;;;;;;;;;;5032510;28;20954;-66
2021/08/27 06:38:59;;;;;;;0.30;0.30;;;;;;;;;;5013326;28;20406;-66
2021/08/27 06:41:25;;;;;;;0.40;0.40;;;;;;;;;;5032555;28;20465;-66
2021/08/27 06:43:51;;;;;;;0.30;0.30;;;;;;;;;;5032382;28;20515;-65
2021/08/27 06:46:19;;;;;;;0.30;0.30;;;;;;;;;;5032519;28;20414;-65
2021/08/27 06:48:45;;;;;;;0.40;0.40;;;;;;;;;;5031863;28;20803;-66
2021/08/27 06:51:11;;;;;;;0.30;0.30;;;;;;;;;;5032565;28;20407;-66
2021/08/27 06:53:37;;;;;;;0.40;0.40;;;;;;;;;;5031989;28;20917;-66
2021/08/27 06:56:04;;;;;;;0.30;0.30;;;;;;;;;;5032897;28;20404;-66
2021/08/27 06:58:30;;;;;;;0.30;0.30;;;;;;;;;;5031942;28;20408;-66
2021/08/27 07:00:56;;;;;;;0.40;0.40;;;;;;;;;;5014192;28;20426;-66
2021/08/27 07:03:22;;;;;;;0.30;0.30;;;;;;;;;;5032125;28;20415;-66
2021/08/27 07:05:49;;;;;;;0.40;0.40;;;;;;;;;;5032337;28;20408;-66
2021/08/27 07:08:15;;;;;;;0.40;0.40;;;;;;;;;;5032258;28;20727;-67
2021/08/27 07:10:41;;;;;;;0.30;0.30;;;;;;;;;;5031566;28;20481;-66
2021/08/27 07:13:07;;;;;;;0.30;0.30;;;;;;;;;;5031620;28;20470;-66
2021/08/27 07:15:34;;;;;;;0.30;0.30;;;;;;;;;;5031674;28;20771;-63
2021/08/27 07:18:00;;;;;;;0.30;0.30;;;;;;;;;;5031672;28;20419;-66
2021/08/27 07:20:26;;;;;;;0.40;0.40;;;;;;;;;;5031875;28;20463;-65
2021/08/27 07:22:52;;;;;;;0.30;0.30;;;;;;;;;;5031748;28;20465;-66
2021/08/27 07:25:19;;;;;;;0.30;0.30;;;;;;;;;;5032122;28;20439;-65
2021/08/27 07:27:45;;;;;;;0.30;0.30;;;;;;;;;;5031668;28;20761;-64
2021/08/27 07:30:11;;;;;;;0.30;0.30;;;;;;;;;;5031668;28;20411;-66
2021/08/27 07:32:37;;;;;;;0.30;0.30;;;;;;;;;;5031395;28;20475;-65
2021/08/27 07:35:04;;;;;;;0.30;0.30;;;;;;;;;;5031909;28;20414;-66
2021/08/27 07:37:30;;;;;;;0.30;0.30;;;;;;;;;;5031553;28;20374;-67
2021/08/27 07:39:56;;;;;;;0.40;0.40;;;;;;;;;;5031798;28;20518;-66
2021/08/27 07:42:22;;;;;;;0.30;0.30;;;;;;;;;;5013876;28;20507;-66
2021/08/27 07:44:48;;;;;;;0.30;0.30;;;;;;;;;;5031560;28;20449;-66
2021/08/27 07:47:14;;;;;;;0.30;0.30;;;;;;;;;;5031732;28;20916;-66
2021/08/27 07:49:40;;;;;;;0.30;0.30;;;;;;;;;;5012722;28;20453;-66
2021/08/27 07:52:07;;;;;;;0.30;0.30;;;;;;;;;;5030387;28;20459;-67
2021/08/27 07:54:33;;;;;;;0.30;0.30;;;;;;;;;;5029952;28;20553;-66
2021/08/27 07:56:59;;;;;;;0.40;0.40;;;;;;;;;;5031669;28;20424;-67
2021/08/27 07:59:25;;;;;;;0.30;0.30;;;;;;;;;;5031355;28;20430;-66
2021/08/27 08:01:52;;;;;;;0.30;0.30;;;;;;;;;;5031259;28;20826;-66
2021/08/27 08:04:18;;;;;;;0.30;0.30;;;;;;;;;;5031527;28;20439;-65
2021/08/27 08:06:44;;;;;;;0.30;0.30;;;;;;;;;;5031213;28;21117;-66
2021/08/27 08:09:10;;;;;;;0.30;0.30;;;;;;;;;;5031337;28;20466;-66
2021/08/27 08:11:37;;;;;;;0.30;0.30;;;;;;;;;;5031229;28;20383;-66
2021/08/27 08:14:03;;;;;;;0.30;0.30;;;;;;;;;;5031390;28;20459;-66
2021/08/27 08:16:29;;;;;;;0.30;0.30;;;;;;;;;;5031338;28;20408;-67
2021/08/27 08:18:55;;;;;;;0.30;0.30;;;;;;;;;;5031202;28;20954;-66
2021/08/27 08:21:24;;;;;;;0.30;0.30;;;;;;;;;;5031354;28;20382;-66
2021/08/27 08:23:50;;;;;;;0.30;0.30;;;;;;;;;;5030891;28;20408;-66
2021/08/27 08:26:18;;;;;;;0.30;0.30;;;;;;;;;;5031611;28;20415;-66
2021/08/27 08:28:44;;;;;;;0.30;0.30;;;;;;;;;;5030962;28;20410;-66
2021/08/27 08:31:16;;;;;;;0.30;0.30;;;;;;;;;;5031387;28;20486;-66
2021/08/27 08:33:42;;;;;;;0.30;0.30;;;;;;;;;;5030627;28;20528;-66
2021/08/27 08:36:08;;;;;;;0.30;0.30;;;;;;;;;;5031213;28;20426;-66
2021/08/27 08:38:34;;;;;;;0.30;0.30;;;;;;;;;;5031117;28;20382;-66
2021/08/27 08:41:03;;;;;;;0.30;0.30;;;;;;;;;;5032512;28;20424;-66
2021/08/27 08:43:29;;;;;;;0.30;0.30;;;;;;;;;;5034686;28;20389;-66
2021/08/27 08:45:55;;;;;;;0.30;0.30;;;;;;;;;;5034736;28;20415;-66
2021/08/27 08:48:22;;;;;;;0.30;0.30;;;;;;;;;;5034786;28;20814;-66
2021/08/27 08:50:49;;;;;;;0.20;0.20;;;;;;;;;;5057381;22;20480;-65
2021/08/27 08:53:15;;;;;;;0.30;0.30;;;;;;;;;;5033837;28;20451;-65
2021/08/27 08:55:42;;;;;;;0.20;0.20;;;;;;;;;;5034368;28;20439;-65
2021/08/27 08:58:08;;;;;;;0.20;0.20;;;;;;;;;;5034376;28;20400;-65
2021/08/27 09:00:35;;;;;;;0.20;0.20;;;;;;;;;;5048255;28;20513;-65
2021/08/27 09:03:01;;;;;;;0.30;0.30;;;;;;;;;;5053960;28;20410;-65
2021/08/27 09:05:27;;;;;;;0.20;0.20;;;;;;;;;;5054327;28;20417;-65
2021/08/27 09:07:54;;;;;;;0.20;0.20;;;;;;;;;;5054085;28;20438;-65
2021/08/27 09:10:21;;;;;;;0.30;0.30;;;;;;;;;;5054289;28;20930;-65
2021/08/27 09:12:47;;;;;;;0.20;0.20;;;;;;;;;;5053745;28;20458;-65
2021/08/27 09:15:14;;;;;;;0.20;0.20;;;;;;;;;;5054379;28;20385;-65
2021/08/27 09:17:41;;;;;;;0.30;0.30;;;;;;;;;;5054088;28;20469;-65
2021/08/27 09:20:08;;;;;;;0.30;0.30;;;;;;;;;;5053883;28;20426;-65
2021/08/27 09:22:53;;;;;;;0.30;0.30;;;;;;;;;;5035832;28;20389;-65
2021/08/27 09:25:20;;;;;;;0.30;0.30;;;;;;;;;;5054117;28;20976;-65
2021/08/27 09:28:04;;;;;;;0.30;0.30;;;;;;;;;;5053979;28;20460;-65
2021/08/27 09:30:32;;;;;;;0.30;0.30;;;;;;;;;;5053629;28;20397;-65
2021/08/27 09:33:07;;;;;;;0.20;0.20;;;;;;;;;;5053428;28;20485;-65
2021/08/27 09:35:33;;;;;;;0.30;0.30;;;;;;;;;;5053632;28;20413;-65
2021/08/27 09:37:59;;;;;;;0.20;0.20;;;;;;;;;;5053710;28;20403;-65
2021/08/27 09:40:27;;;;;;;0.20;0.20;;;;;;;;;;5053498;28;20931;-65
2021/08/27 09:42:54;;;;;;;0.20;0.20;;;;;;;;;;5053388;28;20454;-65
2021/08/27 09:45:20;;;;;;;0.20;0.20;;;;;;;;;;5053351;28;20411;-65
2021/08/27 09:48:19;;;;;;;0.20;0.20;;;;;;;;;;5053256;28;20411;-65
2021/08/27 09:50:49;;;;;;;0.20;0.20;;;;;;;;;;5002906;28;20469;-65
2021/08/27 09:53:15;;;;;;;0.20;0.20;;;;;;;;;;5052790;28;20437;-65
2021/08/27 09:55:56;;;;;;;0.20;0.20;;;;;;;;;;5053480;28;20379;-65
2021/08/27 09:58:22;;;;;;;0.20;0.20;;;;;;;;;;5053122;28;20776;-65
2021/08/27 10:00:59;;;;;;;0.20;0.20;;;;;;;;;;5053209;28;20435;-65
2021/08/27 10:03:26;;;;;;;0.20;0.20;;;;;;;;;;5034924;28;20758;-65
2021/08/27 10:05:56;;;;;;;0.20;0.20;;;;;;;;;;5053177;28;20758;-65
2021/08/27 10:08:27;;;;;;;0.20;0.20;;;;;;;;;;5053091;28;20456;-65
2021/08/27 10:10:55;;;;;;;0.30;0.30;;;;;;;;;;5052903;28;20431;-65
2021/08/27 10:13:22;;;;;;;0.30;0.30;;;;;;;;;;5053058;28;20436;-65
2021/08/27 10:15:48;;;;;;;0.30;0.30;;;;;;;;;;5052654;28;20388;-65
2021/08/27 10:18:14;;;;;;;0.30;0.30;;;;;;;;;;5053051;28;20875;-65
2021/08/27 10:20:41;;;;;;;0.30;0.30;;;;;;;;;;5052618;28;20404;-65
2021/08/27 10:23:08;;;;;;;0.30;0.30;;;;;;;;;;5052909;28;20847;-65
2021/08/27 10:25:34;;;;;;;0.30;0.30;;;;;;;;;;5052702;28;20815;-65
2021/08/27 10:28:00;;;;;;;0.20;0.20;;;;;;;;;;5052930;28;20498;-65
2021/08/27 10:30:45;;;;;;;0.20;0.20;;;;;;;;;;5052556;28;20459;-65
2021/08/27 10:33:11;;;;;;;0.20;0.20;;;;;;;;;;5034351;28;20486;-65
2021/08/27 10:35:41;;;;;;;0.30;0.30;;;;;;;;;;5052659;28;20442;-65
2021/08/27 10:38:07;;;;;;;0.20;0.20;;;;;;;;;;5052434;28;20405;-65
2021/08/27 10:40:40;;;;;;;0.20;0.20;;;;;;;;;;5052421;28;20427;-65
2021/08/27 10:43:06;;;;;;;0.20;0.20;;;;;;;;;;5052025;28;20411;-65
2021/08/27 10:45:41;;;;;;;0.30;0.30;;;;;;;;;;5034499;28;20410;-65
2021/08/27 10:48:08;;;;;;;0.30;0.30;;;;;;;;;;5052184;28;20479;-65
2021/08/27 10:50:34;;;;;;;0.30;0.30;;;;;;;;;;5052212;28;20980;-65
2021/08/27 10:53:19;;;;;;;0.30;0.30;;;;;;;;;;5051808;28;20469;-65
2021/08/27 10:55:45;;;;;;;0.20;0.20;;;;;;;;;;5052050;28;20406;-65
2021/08/27 10:58:14;;;;;;;0.20;0.20;;;;;;;;;;5052091;28;20485;-65
2021/08/27 11:00:41;;;;;;;0.20;0.20;;;;;;;;;;5051768;28;20788;-65
2021/08/27 11:03:08;;;;;;;0.30;0.30;;;;;;;;;;5033193;28;20468;-65
2021/08/27 11:05:38;;;;;;;0.30;0.30;;;;;;;;;;5051818;28;20410;-65
2021/08/27 11:08:06;;;;;;;0.20;0.20;;;;;;;;;;5034083;28;20387;-65
2021/08/27 11:10:32;;;;;;;0.20;0.20;;;;;;;;;;5051575;28;20433;-65
2021/08/27 11:13:00;;;;;;;0.20;0.20;;;;;;;;;;5051637;28;20460;-65
2021/08/27 11:15:29;;;;;;;0.20;0.20;;;;;;;;;;5051829;28;20829;-65
2021/08/27 11:18:13;;;;;;;0.20;0.20;;;;;;;;;;5052009;28;20898;-65
2021/08/27 11:20:40;;;;;;;0.20;0.20;;;;;;;;;;5051809;28;20389;-65
2021/08/27 11:23:06;;;;;;;0.20;0.20;;;;;;;;;;5051440;28;20402;-67
2021/08/27 11:25:33;;;;;;;0.30;0.30;;;;;;;;;;5050959;28;20398;-65
2021/08/27 11:28:12;;;;;;;0.30;0.30;;;;;;;;;;5051322;28;20472;-65
2021/08/27 11:30:45;;;;;;;0.30;0.30;;;;;;;;;;5051526;28;20401;-64
2021/08/27 11:33:40;;;;;;;0.30;0.30;;;;;;;;;;5051237;28;20458;-64
2021/08/27 11:36:06;;;;;;;0.20;0.20;;;;;;;;;;5028392;28;20429;-65
2021/08/27 11:38:32;;;;;;;0.30;0.30;;;;;;;;;;5051436;28;20924;-64
2021/08/27 11:40:59;;;;;;;0.20;0.20;;;;;;;;;;5051430;28;20465;-64
2021/08/27 11:43:50;;;;;;;0.20;0.20;;;;;;;;;;5050739;28;20411;-65
2021/08/27 11:46:27;;;;;;;0.20;0.20;;;;;;;;;;5050634;28;20441;-65
2021/08/27 11:48:57;;;;;;;0.30;0.30;;;;;;;;;;5051426;28;20406;-65
2021/08/27 11:51:27;;;;;;;0.20;0.20;;;;;;;;;;5051431;28;20730;-65
2021/08/27 11:53:53;;;;;;;0.20;0.20;;;;;;;;;;5051105;28;20576;-65
2021/08/27 11:56:23;;;;;;;0.20;0.20;;;;;;;;;;5051139;28;20457;-65
2021/08/27 11:58:50;;;;;;;0.20;0.20;;;;;;;;;;5051560;28;20832;-65
2021/08/27 12:01:26;;;;;;;0.20;0.20;;;;;;;;;;5051058;28;20393;-65
2021/08/27 12:03:52;;;;;;;0.20;0.20;;;;;;;;;;5051185;28;20413;-65
2021/08/27 12:06:22;;;;;;;0.20;0.20;;;;;;;;;;5051044;28;20472;-65
2021/08/27 12:08:48;;;;;;;0.20;0.20;;;;;;;;;;5051174;28;20439;-65
2021/08/27 12:11:35;;;;;;;0.20;0.20;;;;;;;;;;5051130;28;20517;-65
2021/08/27 12:14:01;;;;;;;0.20;0.20;;;;;;;;;;5051035;28;20471;-65
2021/08/27 12:16:27;;;;;;;0.20;0.20;;;;;;;;;;5055267;28;20417;-66
2021/08/27 12:18:55;;;;;;;0.30;0.30;;;;;;;;;;5055092;28;20413;-66
2021/08/27 12:21:24;;;;;;;0.30;0.30;;;;;;;;;;5055474;28;20398;-66
2021/08/27 12:24:16;;;;;;;0.30;0.30;;;;;;;;;;5036810;28;20425;-64
2021/08/27 12:26:42;;;;;;;0.20;0.20;;;;;;;;;;5052317;28;20472;-66
2021/08/27 12:29:17;;;;;;;0.20;0.20;;;;;;;;;;5054597;28;20410;-66
2021/08/27 12:31:47;;;;;;;0.30;0.30;;;;;;;;;;5055183;28;20420;-66
2021/08/27 12:34:13;;;;;;;0.30;0.30;;;;;;;;;;5054554;28;20960;-66
2021/08/27 12:36:40;;;;;;;0.20;0.20;;;;;;;;;;5054912;28;20755;-66
2021/08/27 12:39:08;;;;;;;0.20;0.20;;;;;;;;;;5054801;28;20414;-66
2021/08/27 12:41:38;;;;;;;0.20;0.20;;;;;;;;;;5054532;28;20406;-66
2021/08/27 12:44:14;;;;;;;0.20;0.20;;;;;;;;;;5054147;28;20471;-66
2021/08/27 12:46:47;;;;;;;0.20;0.20;;;;;;;;;;5054597;28;20906;-66
2021/08/27 12:49:13;;;;;;;0.20;0.20;;;;;;;;;;5054481;28;20411;-64
2021/08/27 12:51:41;;;;;;;0.20;0.20;;;;;;;;;;5054495;28;20425;-64
2021/08/27 12:54:07;;;;;;;0.20;0.20;;;;;;;;;;5036386;28;20440;-64
2021/08/27 12:56:33;;;;;;;0.30;0.30;;;;;;;;;;5054420;28;20400;-64
2021/08/27 12:59:13;;;;;;;0.20;0.20;;;;;;;;;;5054262;28;20860;-64
2021/08/27 13:01:39;;;;;;;0.20;0.20;;;;;;;;;;5054548;28;20803;-64
2021/08/27 13:04:05;;;;;;;0.20;0.20;;;;;;;;;;5053921;28;20406;-66
2021/08/27 13:06:35;;;;;;;0.20;0.20;;;;;;;;;;5054372;28;20464;-64
2021/08/27 13:09:10;;;;;;;0.20;0.20;;;;;;;;;;5054033;28;21016;-64
2021/08/27 13:11:46;;;;;;;0.20;0.20;;;;;;;;;;5054263;28;20407;-64
2021/08/27 13:14:16;;;;;;;0.20;0.20;;;;;;;;;;5053639;28;20505;-64
2021/08/27 13:16:53;;;;;;;0.30;0.30;;;;;;;;;;5054167;28;20466;-64
2021/08/27 13:19:19;;;;;;;0.20;0.20;;;;;;;;;;5053898;28;20983;-64
2021/08/27 13:21:45;;;;;;;0.20;0.20;;;;;;;;;;5053997;28;20413;-64
2021/08/27 13:24:12;;;;;;;0.20;0.20;;;;;;;;;;5053878;28;20409;-64
2021/08/27 13:26:39;;;;;;;0.20;0.20;;;;;;;;;;5052977;28;20415;-64
2021/08/27 13:29:05;;;;;;;0.20;0.20;;;;;;;;;;5053816;28;20812;-64
2021/08/27 13:31:32;;;;;;;0.20;0.20;;;;;;;;;;5053480;28;20410;-64
2021/08/27 13:33:59;;;;;;;0.20;0.20;;;;;;;;;;5053629;28;20454;-64
2021/08/27 13:36:26;;;;;;;0.30;0.30;;;;;;;;;;5053643;28;20406;-64
2021/08/27 13:38:52;;;;;;;0.20;0.20;;;;;;;;;;5053824;28;20405;-64
2021/08/27 13:41:18;;;;;;;0.20;0.20;;;;;;;;;;5053701;28;20422;-66
2021/08/27 13:43:44;;;;;;;0.20;0.20;;;;;;;;;;5053197;28;20402;-64
2021/08/27 13:46:10;;;;;;;0.20;0.20;;;;;;;;;;5053593;28;20413;-64
2021/08/27 13:48:36;;;;;;;0.20;0.20;;;;;;;;;;5053466;28;20473;-64
2021/08/27 13:51:02;;;;;;;0.20;0.20;;;;;;;;;;5053454;28;20455;-64
2021/08/27 13:53:28;;;;;;;0.20;0.20;;;;;;;;;;5050513;28;20513;-64
2021/08/27 13:55:54;;;;;;;0.20;0.20;;;;;;;;;;5053050;28;20468;-64
2021/08/27 13:58:20;;;;;;;0.20;0.20;;;;;;;;;;5052627;28;20872;-64
2021/08/27 14:00:46;;;;;;;0.20;0.20;;;;;;;;;;5052958;28;20441;-64
2021/08/27 14:03:14;;;;;;;0.20;0.20;;;;;;;;;;5052482;28;20385;-63
2021/08/27 14:05:43;;;;;;;0.20;0.20;;;;;;;;;;5053153;28;20389;-63
2021/08/27 14:08:10;;;;;;;0.30;0.30;;;;;;;;;;5053241;28;20476;-64
2021/08/27 14:10:36;;;;;;;0.20;0.20;;;;;;;;;;5052678;28;20404;-64
2021/08/27 14:13:02;;;;;;;0.20;0.20;;;;;;;;;;5052721;28;20446;-64
2021/08/27 14:15:28;;;;;;;0.20;0.20;;;;;;;;;;5052867;28;21061;-64
2021/08/27 14:17:54;;;;;;;0.20;0.20;;;;;;;;;;5052931;28;20415;-64
2021/08/27 14:20:21;;;;;;;0.20;0.20;;;;;;;;;;5053053;28;20405;-64
2021/08/27 14:22:47;;;;;;;0.20;0.20;;;;;;;;;;5052602;28;20385;-64
2021/08/27 14:25:14;;;;;;;0.30;0.30;;;;;;;;;;5053104;28;20418;-64
2021/08/27 14:27:40;;;;;;;0.20;0.20;;;;;;;;;;5052679;28;20438;-64
2021/08/27 14:30:08;;;;;;;0.20;0.20;;;;;;;;;;5052709;28;20437;-64
2021/08/27 14:32:36;;;;;;;0.20;0.20;;;;;;;;;;5052297;28;20975;-65
2021/08/27 14:35:02;;;;;;;0.20;0.20;;;;;;;;;;5051966;28;20406;-64
2021/08/27 14:37:28;;;;;;;0.30;0.30;;;;;;;;;;5051933;28;20754;-64
2021/08/27 14:39:54;;;;;;;0.30;0.30;;;;;;;;;;5052362;28;20422;-64
2021/08/27 14:42:20;;;;;;;0.20;0.20;;;;;;;;;;5052352;28;20439;-64
2021/08/27 14:44:46;;;;;;;0.30;0.30;;;;;;;;;;5051854;28;20406;-64
2021/08/27 14:47:12;;;;;;;0.30;0.30;;;;;;;;;;5051629;28;20884;-64